Cologne, Minnesota
Current Conditions -  °F | °C
As of 6:14 PM on Thursday 27 Nov 2014 (Local Time) from KGYL Reporting Station
Scattered Clouds Scattered Clouds  
Wind Chill:   Ceiling: Unl
Heat Index:   Visibility: 10mi
Dew Point: -2°   Wind: 3mph
Humidity: 76%   Direction: 160°SSE
Pressure: 30.35"   Gusts: NA
Location:  44.77°N, 93.78°W
Report Text: KGYL 280014Z AUTO 16003KT 10SM SCT100 M15/M19 A3035 RMK AO2 T11551188
Loading
Personal Weather Stations






























Interactive Weather Map New forecast layout! Learn more

10-Day Weather Forecast

Advertisements
Track Severe Weather on mobile